Underkhaan, Mongolia
Current Conditions -  °F | °C
As of 6:30 PM on Thursday 29 Jan 2015 (Local Time) from ZMUB Reporting Station
Clear Clear  
Wind Chill: -28°   Ceiling: Unl
Heat Index: -13°   Visibility: 6mi
Dew Point: -22°   Wind: 7mph
Humidity: 64%   Direction: 180°S
Pressure: 30.3"   Gusts: NA
Location:  47.32°N, 110.63°E
Report Text: ZMUB 291030Z 18003MPS CAVOK M25/M30 Q1026 NOSIG RMK QFE661.3 65
Loading
Personal Weather Stations






























Interactive Weather Map New forecast layout! Learn more

10-Day Weather Forecast

Advertisements
Track Severe Weather on mobile